Villegreen, Colorado
Current Conditions -  °F | °C
As of 4:53 AM on Sunday 21 Dec 2014 (Local Time) from KLHX Reporting Station
Clear Clear  
Wind Chill: 21°   Ceiling: Unl
Heat Index: 26°   Visibility: 10mi
Dew Point: 21°   Wind: 5mph
Humidity: 81%   Direction: 280°W
Pressure: 29.84"   Gusts: NA
Location:  37.331°N, 103.371°W
Report Text: KLHX 211153Z AUTO 28004KT 10SM CLR M03/M06 A2984 RMK AO2 SLP114 T10331061 10006 21039 58009
Loading
Personal Weather Stations






























Interactive Weather Map New forecast layout! Learn more

10-Day Weather Forecast

Advertisements
Track Severe Weather on mobile